Airfield :
LOGIN :

Register | Disclaimer

   EN    FR    IT 

 










Legend :    VFR   Marginal VFR   IFR   Intensive IFR   Very Intensive IFR
Visi :
Ceiling :
>= 8 km
>= 3000ft
5 to 8 km
1000 to 3000 ft
1500m to 5 km
500 to 1000 ft
800 to 1500m
200 to 500 ft
< 800m
< 200 ft
Symbols :   Thunderstorms  Fog  Heavy snow  Heavy precipitations  Wind > 20 kt
SIGMETs :     Misc.  Thunderstorms  Icing  Turbulence  Mountain Waves  Volcanic Ashes







- Airport Elevation : 364 ft
- IATA code : FRA


EDDF - Frankfurt Int.

CURRENT METAR :
  • 221450Z 06004KT 9000 FEW016 BKN021 M02/M04 Q1007 NOSIG

EXPIRED METARs :
  • 221420Z 04003KT 350V090 7000 FEW015 OVC020 M02/M04 Q1008 NOSIG
  • 221350Z 05004KT 350V090 6000 FEW005 OVC020 M03/M05 Q1008 NOSIG
  • 221320Z 06004KT 010V090 6000 FEW006 OVC020 M03/M05 Q1009 NOSIG
  • 221250Z 07003KT 030V100 5000 BR FEW006 OVC019 M03/M05 Q1009 NOSIG
  • 221220Z VRB02KT 5000 BR FEW005 SCT008 BKN019 M04/M05 Q1010 NOSIG

TAF TAF EDDF
Valid from the 22 at 12:00 until the 23 at 18:00 UTC


221100Z 2212/2318 VRB03KT 9000 SCT008 BKN020
TEMPO 2212/2215 4000 -SN BR BKN006
BECMG 2214/2217 13005KT
TEMPO 2218/2224 SCT045
PROB40
TEMPO 2303/2307 4500 -SN BKN010
BECMG 2304/2306 06006KT
No reported NOTAMs for that airfield.



MET'MAP, your aeronautical weather chart ! - Copyright ORBIFLY December 2007 - Disclaimer

ORBIFLY MET'MAP TEAM :

Programming & Development : Alexandra Zaïnal
Concept & Development : Baudouin d'Aumeries
Co-Development & Prog : Marc-Olivier Méhu
Technical & hardware support : Manuel Goepfert

Contact : metmap@orbifly.com




SOURCES & CREDITS :

   NOAA